Time;durP1;ratioP1;P1;durP2;ratioP2;P2;SDS_P1;SDS_P2;PMS_P1;PMS_P2;Temp;Humidity;BMP_temperature;BMP_pressure;BME280_temperature;BME280_humidity;BME280_pressure;Samples;Min_cycle;Max_cycle;Signal;HPM_P1;HPM_P2
2022/12/01 00:03:47;;;;;;;21.85;12.32;;;;;;;;;;8337756;28;20049;-64
2022/12/01 00:07:47;;;;;;;21.90;11.90;;;;;;;;;;8335316;28;20520;-64
2022/12/01 00:11:47;;;;;;;17.60;11.95;;;;;;;;;;8335691;28;20033;-64
2022/12/01 00:15:48;;;;;;;18.77;11.68;;;;;;;;;;8333908;28;20048;-64
2022/12/01 00:19:48;;;;;;;17.20;11.37;;;;;;;;;;8335785;28;20021;-64
2022/12/01 00:23:49;;;;;;;25.95;13.43;;;;;;;;;;8337238;28;20267;-64
2022/12/01 00:27:50;;;;;;;18.83;12.43;;;;;;;;;;8336470;28;20023;-64
2022/12/01 00:31:50;;;;;;;19.40;12.60;;;;;;;;;;8335166;28;20041;-64
2022/12/01 00:35:56;;;;;;;21.77;11.82;;;;;;;;;;8336041;28;20017;-64
2022/12/01 00:39:57;;;;;;;16.30;11.93;;;;;;;;;;8336388;28;20488;-64
2022/12/01 00:43:57;;;;;;;16.75;11.57;;;;;;;;;;8336143;28;20029;-64
2022/12/01 00:47:57;;;;;;;23.10;11.63;;;;;;;;;;8336214;28;20377;-64
2022/12/01 00:51:57;;;;;;;45.00;12.18;;;;;;;;;;8334181;28;20279;-64
2022/12/01 00:55:57;;;;;;;17.02;11.27;;;;;;;;;;8334656;28;20084;-65
2022/12/01 00:59:58;;;;;;;15.95;10.90;;;;;;;;;;8336585;28;20029;-64
2022/12/01 01:03:58;;;;;;;15.57;10.85;;;;;;;;;;8344599;28;20048;-64
2022/12/01 01:07:58;;;;;;;116.60;13.20;;;;;;;;;;8342026;28;20028;-64
2022/12/01 01:11:58;;;;;;;330.45;17.92;;;;;;;;;;8342032;28;20056;-65
2022/12/01 01:16:00;;;;;;;287.35;17.13;;;;;;;;;;8342373;28;20043;-64
2022/12/01 01:20:00;;;;;;;746.42;28.50;;;;;;;;;;8341424;28;20040;-64
2022/12/01 01:24:00;;;;;;;627.67;24.20;;;;;;;;;;8341255;28;20482;-64
2022/12/01 01:28:00;;;;;;;257.53;15.47;;;;;;;;;;8338860;28;20131;-64
2022/12/01 01:32:00;;;;;;;19.42;9.10;;;;;;;;;;8340409;28;20294;-64
2022/12/01 01:36:01;;;;;;;140.60;12.20;;;;;;;;;;8340529;28;20020;-64
2022/12/01 01:40:01;;;;;;;72.18;10.73;;;;;;;;;;8341519;28;20024;-65
2022/12/01 01:44:02;;;;;;;301.47;15.67;;;;;;;;;;8342003;28;20033;-65
2022/12/01 01:48:03;;;;;;;108.38;10.73;;;;;;;;;;8340732;28;20271;-63
2022/12/01 01:52:03;;;;;;;65.93;9.98;;;;;;;;;;8342526;28;20079;-64
2022/12/01 01:56:04;;;;;;;308.15;15.57;;;;;;;;;;8342408;28;20099;-66
2022/12/01 02:00:15;;;;;;;37.05;7.38;;;;;;;;;;8341655;28;20127;-64
2022/12/01 02:04:16;;;;;;;254.50;12.55;;;;;;;;;;8340371;28;20074;-64
2022/12/01 02:08:16;;;;;;;133.75;9.30;;;;;;;;;;8342039;28;20027;-64
2022/12/01 02:12:16;;;;;;;562.58;19.17;;;;;;;;;;8338622;28;20023;-64
2022/12/01 02:16:35;;;;;;;199.13;9.02;;;;;;;;;;8340433;28;20509;-63
2022/12/01 02:20:38;;;;;;;176.73;10.20;;;;;;;;;;8339325;28;20041;-64
2022/12/01 02:24:57;;;;;;;36.45;5.45;;;;;;;;;;8337947;28;20028;-64
2022/12/01 02:29:12;;;;;;;222.23;8.60;;;;;;;;;;8342005;28;20486;-63
2022/12/01 02:33:15;;;;;;;273.92;10.45;;;;;;;;;;8338741;28;20037;-64
2022/12/01 02:37:28;;;;;;;285.87;10.57;;;;;;;;;;8339237;28;20048;-64
2022/12/01 02:41:34;;;;;;;257.20;10.43;;;;;;;;;;8340196;28;20171;-64
2022/12/01 02:45:43;;;;;;;329.00;9.93;;;;;;;;;;8339199;28;20120;-64
2022/12/01 02:49:47;;;;;;;244.65;8.88;;;;;;;;;;8340919;28;20029;-69
2022/12/01 02:53:48;;;;;;;350.98;12.60;;;;;;;;;;8340217;28;20028;-64
2022/12/01 02:57:48;;;;;;;315.75;10.23;;;;;;;;;;8341137;28;20569;-64
2022/12/01 03:01:52;;;;;;;373.70;12.07;;;;;;;;;;8336970;28;20044;-64
2022/12/01 03:06:01;;;;;;;365.37;13.17;;;;;;;;;;8339162;28;20024;-64
2022/12/01 03:10:09;;;;;;;20.08;4.68;;;;;;;;;;8337827;28;20205;-63
2022/12/01 03:14:18;;;;;;;152.23;7.32;;;;;;;;;;8339799;28;20083;-64
2022/12/01 03:18:38;;;;;;;170.77;6.55;;;;;;;;;;8339405;28;20033;-64
2022/12/01 03:22:41;;;;;;;194.75;8.10;;;;;;;;;;8339822;28;20468;-64
2022/12/01 03:26:44;;;;;;;355.33;11.40;;;;;;;;;;8338364;28;20032;-64
2022/12/01 03:30:45;;;;;;;297.25;10.63;;;;;;;;;;8337380;28;20044;-64
2022/12/01 03:35:03;;;;;;;349.17;12.15;;;;;;;;;;8336528;28;20025;-64
2022/12/01 03:39:05;;;;;;;874.95;25.13;;;;;;;;;;8338861;28;20016;-64
2022/12/01 03:43:07;;;;;;;260.33;9.40;;;;;;;;;;8340897;28;20017;-64
2022/12/01 03:47:13;;;;;;;94.20;7.03;;;;;;;;;;8337419;28;20071;-64
2022/12/01 03:51:13;;;;;;;70.10;7.07;;;;;;;;;;8336603;28;20098;-64
2022/12/01 03:55:19;;;;;;;132.07;9.50;;;;;;;;;;8338648;28;20394;-64
2022/12/01 03:59:21;;;;;;;49.15;8.02;;;;;;;;;;8333976;28;20017;-64
2022/12/01 04:03:23;;;;;;;28.75;7.65;;;;;;;;;;8337448;28;20053;-64
2022/12/01 04:07:23;;;;;;;192.25;11.63;;;;;;;;;;8335321;28;20639;-64
2022/12/01 04:15:42;;;;;;;65.95;9.27;;;;;;;;;;8338214;28;20951;-64
2022/12/01 04:19:43;;;;;;;15.95;8.00;;;;;;;;;;8336265;28;20020;-65
2022/12/01 04:24:01;;;;;;;20.15;7.75;;;;;;;;;;8338198;28;20426;-64
2022/12/01 04:28:02;;;;;;;34.15;8.27;;;;;;;;;;8339130;28;20088;-64
2022/12/01 04:32:02;;;;;;;34.97;8.02;;;;;;;;;;8338084;28;20153;-63
2022/12/01 04:36:02;;;;;;;30.90;7.47;;;;;;;;;;8337761;28;20074;-64
2022/12/01 04:40:04;;;;;;;17.05;6.82;;;;;;;;;;8339421;28;20332;-64
2022/12/01 04:44:04;;;;;;;47.90;7.63;;;;;;;;;;8336096;28;20032;-64
2022/12/01 04:48:05;;;;;;;140.93;9.25;;;;;;;;;;8338190;28;20081;-64
2022/12/01 04:52:06;;;;;;;264.77;12.53;;;;;;;;;;8340038;28;20024;-64
2022/12/01 04:56:06;;;;;;;109.75;9.63;;;;;;;;;;8334433;28;20271;-64
2022/12/01 05:00:11;;;;;;;157.63;12.20;;;;;;;;;;8338763;28;20017;-64
2022/12/01 05:04:12;;;;;;;33.72;8.32;;;;;;;;;;8338508;28;20013;-64
2022/12/01 05:08:12;;;;;;;51.53;9.70;;;;;;;;;;8339743;28;20381;-64
2022/12/01 05:12:12;;;;;;;13.90;9.17;;;;;;;;;;8340420;28;20114;-64
2022/12/01 05:16:14;;;;;;;20.58;9.25;;;;;;;;;;8336678;28;20275;-64
2022/12/01 05:24:38;;;;;;;27.08;9.15;;;;;;;;;;8336504;28;20047;-63
2022/12/01 05:28:39;;;;;;;22.75;9.98;;;;;;;;;;8336185;28;20052;-64
2022/12/01 05:32:40;;;;;;;30.55;10.20;;;;;;;;;;8332907;28;20041;-64
2022/12/01 05:36:40;;;;;;;37.92;11.07;;;;;;;;;;8333905;28;20025;-64
2022/12/01 05:40:41;;;;;;;55.70;12.30;;;;;;;;;;8335743;28;20364;-64
2022/12/01 05:44:41;;;;;;;28.70;12.82;;;;;;;;;;8335973;28;20088;-65
2022/12/01 05:48:41;;;;;;;84.95;14.70;;;;;;;;;;8339314;28;20037;-64
2022/12/01 05:52:41;;;;;;;23.85;14.77;;;;;;;;;;8335781;28;20198;-64
2022/12/01 05:56:42;;;;;;;22.83;14.13;;;;;;;;;;8341795;28;20017;-64
2022/12/01 06:00:42;;;;;;;26.70;15.17;;;;;;;;;;8337293;28;20036;-64
2022/12/01 06:04:42;;;;;;;25.70;15.35;;;;;;;;;;8338458;28;20285;-64
2022/12/01 06:08:42;;;;;;;25.63;15.27;;;;;;;;;;8342308;28;20353;-64
2022/12/01 06:12:42;;;;;;;29.52;15.38;;;;;;;;;;8338859;28;20481;-64
2022/12/01 06:16:43;;;;;;;29.40;16.58;;;;;;;;;;8340362;28;20040;-64
2022/12/01 06:20:43;;;;;;;28.70;15.35;;;;;;;;;;8338978;28;20021;-64
2022/12/01 06:24:43;;;;;;;26.50;15.27;;;;;;;;;;8337482;28;20094;-64
2022/12/01 06:28:43;;;;;;;29.63;15.50;;;;;;;;;;8339187;28;20035;-64
2022/12/01 06:32:43;;;;;;;32.22;15.43;;;;;;;;;;8335576;28;20033;-64
2022/12/01 06:36:44;;;;;;;25.75;15.05;;;;;;;;;;8339565;28;20036;-63
2022/12/01 06:40:44;;;;;;;24.13;14.37;;;;;;;;;;8333010;28;20016;-64
2022/12/01 06:44:45;;;;;;;23.65;13.45;;;;;;;;;;8332567;28;20279;-64
2022/12/01 06:48:47;;;;;;;23.38;13.55;;;;;;;;;;8333901;28;20041;-63
2022/12/01 06:52:47;;;;;;;25.58;13.23;;;;;;;;;;8331850;28;20152;-64
2022/12/01 06:56:47;;;;;;;31.23;15.38;;;;;;;;;;8332106;28;20067;-64
2022/12/01 07:00:47;;;;;;;28.90;15.43;;;;;;;;;;8331415;28;20032;-64
2022/12/01 07:04:47;;;;;;;25.48;14.20;;;;;;;;;;8339887;28;20727;-63
2022/12/01 07:08:48;;;;;;;23.65;14.80;;;;;;;;;;8332332;28;20028;-63
2022/12/01 07:12:48;;;;;;;23.77;15.17;;;;;;;;;;8335151;28;20040;-65
2022/12/01 07:16:48;;;;;;;30.80;16.42;;;;;;;;;;8331469;28;20264;-63
2022/12/01 07:20:48;;;;;;;26.40;15.00;;;;;;;;;;8331995;28;20028;-63
2022/12/01 07:24:49;;;;;;;25.80;14.83;;;;;;;;;;8331426;28;20268;-64
2022/12/01 07:28:49;;;;;;;29.63;16.67;;;;;;;;;;8319057;28;20282;-64
2022/12/01 07:32:49;;;;;;;23.20;13.95;;;;;;;;;;8328991;28;20349;-64
2022/12/01 07:36:49;;;;;;;29.60;14.88;;;;;;;;;;8332020;28;20062;-64
2022/12/01 07:40:49;;;;;;;24.58;15.15;;;;;;;;;;8333491;28;20029;-64
2022/12/01 07:44:50;;;;;;;24.80;13.93;;;;;;;;;;8338620;28;20028;-64
2022/12/01 07:48:50;;;;;;;27.20;13.13;;;;;;;;;;8334067;28;20033;-64
2022/12/01 07:52:51;;;;;;;21.92;13.63;;;;;;;;;;8339197;28;20547;-64
2022/12/01 07:56:51;;;;;;;22.95;13.85;;;;;;;;;;8336153;28;20138;-63
2022/12/01 08:00:51;;;;;;;21.50;13.50;;;;;;;;;;8338834;28;20032;-64
2022/12/01 08:04:52;;;;;;;23.15;13.98;;;;;;;;;;8338879;28;20028;-64
2022/12/01 08:08:52;;;;;;;24.75;14.02;;;;;;;;;;8336430;28;20043;-64
2022/12/01 08:12:52;;;;;;;23.45;14.13;;;;;;;;;;8336312;28;20024;-64
2022/12/01 08:16:52;;;;;;;23.20;13.98;;;;;;;;;;8337107;28;20568;-64
2022/12/01 08:20:55;;;;;;;22.55;13.82;;;;;;;;;;8334393;28;20800;-64
2022/12/01 08:24:56;;;;;;;23.80;15.07;;;;;;;;;;8333509;28;20397;-65
2022/12/01 08:28:56;;;;;;;21.75;14.02;;;;;;;;;;8336649;28;20025;-66
2022/12/01 08:32:57;;;;;;;28.02;13.77;;;;;;;;;;8338685;28;20067;-63
2022/12/01 08:36:57;;;;;;;22.98;13.48;;;;;;;;;;8332238;28;20595;-64
2022/12/01 08:40:59;;;;;;;22.98;13.32;;;;;;;;;;8335789;28;20039;-64
2022/12/01 08:44:59;;;;;;;23.23;14.45;;;;;;;;;;8335935;28;20291;-63
2022/12/01 08:48:59;;;;;;;22.65;13.45;;;;;;;;;;8335406;28;20041;-64
2022/12/01 08:52:59;;;;;;;24.50;14.38;;;;;;;;;;8337254;28;20048;-64
2022/12/01 08:57:00;;;;;;;25.08;14.57;;;;;;;;;;8336998;28;20056;-64
2022/12/01 09:01:11;;;;;;;23.43;13.57;;;;;;;;;;8336034;28;20175;-64
2022/12/01 09:05:11;;;;;;;23.45;13.95;;;;;;;;;;8335051;28;20277;-64
2022/12/01 09:09:12;;;;;;;22.73;14.07;;;;;;;;;;8334691;28;20025;-64
2022/12/01 09:13:13;;;;;;;26.83;15.20;;;;;;;;;;8335930;28;20021;-63
2022/12/01 09:17:13;;;;;;;30.38;16.73;;;;;;;;;;8333687;28;20128;-64
2022/12/01 09:21:17;;;;;;;30.23;16.50;;;;;;;;;;8337805;28;20020;-64
2022/12/01 09:25:17;;;;;;;34.58;16.25;;;;;;;;;;8343422;28;20028;-63
2022/12/01 09:29:17;;;;;;;27.67;16.48;;;;;;;;;;8344486;28;20035;-64
2022/12/01 09:33:18;;;;;;;22.92;14.30;;;;;;;;;;8342575;28;20029;-64
2022/12/01 09:37:18;;;;;;;21.73;13.73;;;;;;;;;;8343070;28;20132;-65
2022/12/01 09:41:27;;;;;;;21.45;13.25;;;;;;;;;;8344157;28;20026;-64
2022/12/01 09:45:29;;;;;;;22.20;13.18;;;;;;;;;;8340076;28;21043;-63
2022/12/01 09:49:47;;;;;;;26.00;12.85;;;;;;;;;;8345062;28;20029;-64
2022/12/01 09:53:53;;;;;;;21.77;12.48;;;;;;;;;;8342834;28;20147;-64
2022/12/01 09:57:55;;;;;;;18.67;11.98;;;;;;;;;;8342435;28;20545;-64
2022/12/01 10:02:00;;;;;;;21.63;12.60;;;;;;;;;;8340496;28;20032;-64
2022/12/01 10:06:21;;;;;;;20.05;12.90;;;;;;;;;;8341827;28;20025;-65
2022/12/01 10:10:36;;;;;;;17.83;11.18;;;;;;;;;;8329522;28;20037;-64
2022/12/01 10:14:36;;;;;;;22.23;12.40;;;;;;;;;;8342755;28;20029;-64
2022/12/01 10:18:36;;;;;;;21.15;12.18;;;;;;;;;;8341015;28;20124;-64
2022/12/01 10:22:38;;;;;;;20.90;12.82;;;;;;;;;;8342280;28;20025;-64
2022/12/01 10:26:50;;;;;;;17.90;12.20;;;;;;;;;;8341977;28;20326;-65
2022/12/01 10:30:52;;;;;;;17.58;11.32;;;;;;;;;;8338709;28;20040;-64
2022/12/01 10:34:52;;;;;;;18.65;11.77;;;;;;;;;;8340059;28;20036;-64
2022/12/01 10:38:52;;;;;;;17.42;10.77;;;;;;;;;;8343280;28;20052;-64
2022/12/01 10:42:53;;;;;;;18.52;11.23;;;;;;;;;;8342545;28;20094;-65
2022/12/01 10:46:54;;;;;;;15.65;10.18;;;;;;;;;;8338649;28;20041;-64
2022/12/01 10:50:56;;;;;;;16.70;10.50;;;;;;;;;;8338653;28;20436;-65
2022/12/01 10:54:57;;;;;;;18.13;11.35;;;;;;;;;;8341091;28;20048;-65
2022/12/01 10:59:02;;;;;;;17.92;10.93;;;;;;;;;;8347939;28;20600;-65
2022/12/01 11:03:20;;;;;;;18.75;11.20;;;;;;;;;;8353942;28;20055;-65
2022/12/01 11:07:23;;;;;;;18.30;11.45;;;;;;;;;;8339132;28;20016;-64
2022/12/01 11:11:23;;;;;;;15.85;10.57;;;;;;;;;;8337539;28;20218;-64
2022/12/01 11:15:25;;;;;;;17.52;10.63;;;;;;;;;;8338651;28;20040;-65
2022/12/01 11:19:31;;;;;;;17.00;11.15;;;;;;;;;;8333075;28;20032;-65
2022/12/01 11:23:34;;;;;;;16.20;10.35;;;;;;;;;;8334461;28;20582;-64
2022/12/01 11:27:36;;;;;;;16.77;10.27;;;;;;;;;;8335613;28;20033;-65
2022/12/01 11:31:41;;;;;;;17.50;10.50;;;;;;;;;;8338945;28;20159;-64
2022/12/01 11:35:45;;;;;;;19.27;10.27;;;;;;;;;;8336667;28;20059;-65
2022/12/01 11:39:47;;;;;;;17.00;10.60;;;;;;;;;;8338988;28;20704;-64
2022/12/01 11:43:47;;;;;;;17.63;10.68;;;;;;;;;;8338672;28;20544;-64
2022/12/01 11:48:17;;;;;;;17.60;11.23;;;;;;;;;;8336892;28;20072;-65
2022/12/01 11:52:26;;;;;;;16.10;10.27;;;;;;;;;;8338474;28;20112;-65
2022/12/01 11:56:28;;;;;;;15.57;9.73;;;;;;;;;;8337777;28;20063;-63
2022/12/01 12:00:44;;;;;;;15.68;9.52;;;;;;;;;;8325792;28;20056;-64
2022/12/01 12:04:51;;;;;;;14.35;9.40;;;;;;;;;;8328059;28;20085;-64
2022/12/01 12:09:06;;;;;;;15.52;8.88;;;;;;;;;;8330174;28;20017;-64
2022/12/01 12:13:15;;;;;;;15.80;10.00;;;;;;;;;;8337774;28;20021;-64
2022/12/01 12:17:15;;;;;;;15.23;9.48;;;;;;;;;;8339993;28;20040;-61
2022/12/01 12:21:18;;;;;;;14.88;9.57;;;;;;;;;;8335228;28;20017;-61
2022/12/01 12:25:23;;;;;;;14.73;9.73;;;;;;;;;;8334284;28;20210;-61
2022/12/01 12:29:49;;;;;;;15.57;10.02;;;;;;;;;;8331160;28;20158;-61
2022/12/01 12:33:52;;;;;;;15.32;10.07;;;;;;;;;;8336725;28;20052;-61
2022/12/01 12:37:52;;;;;;;14.80;9.80;;;;;;;;;;8333225;28;20029;-64
2022/12/01 12:41:53;;;;;;;15.02;9.75;;;;;;;;;;8337427;28;20020;-63
2022/12/01 12:45:54;;;;;;;16.95;10.48;;;;;;;;;;8332779;28;20864;-61
2022/12/01 12:50:00;;;;;;;16.90;10.20;;;;;;;;;;8337755;28;20082;-64
2022/12/01 12:54:18;;;;;;;15.93;10.13;;;;;;;;;;8329912;28;20498;-63
2022/12/01 12:58:22;;;;;;;16.10;10.27;;;;;;;;;;8338090;28;20115;-64
2022/12/01 13:02:25;;;;;;;17.17;10.77;;;;;;;;;;8336349;28;20589;-64
2022/12/01 13:06:33;;;;;;;16.90;10.75;;;;;;;;;;8336587;28;20031;-63
2022/12/01 13:10:33;;;;;;;18.40;10.90;;;;;;;;;;8336294;28;20108;-62
2022/12/01 13:15:00;;;;;;;16.10;10.93;;;;;;;;;;8337357;28;20028;-63
2022/12/01 13:19:23;;;;;;;20.38;11.05;;;;;;;;;;8319291;28;20041;-63
2022/12/01 13:23:23;;;;;;;16.67;11.35;;;;;;;;;;8334345;28;20067;-63
2022/12/01 13:27:25;;;;;;;18.30;10.95;;;;;;;;;;8334949;28;20513;-64
2022/12/01 13:31:26;;;;;;;18.98;11.32;;;;;;;;;;8330802;28;21271;-63
2022/12/01 13:35:36;;;;;;;17.58;10.75;;;;;;;;;;8333878;28;20071;-63
2022/12/01 13:39:37;;;;;;;15.93;10.20;;;;;;;;;;8333631;28;20068;-63
2022/12/01 13:43:48;;;;;;;17.35;10.10;;;;;;;;;;8335688;28;20734;-63
2022/12/01 13:47:50;;;;;;;17.55;10.27;;;;;;;;;;8333712;28;20441;-63
2022/12/01 13:52:09;;;;;;;16.70;10.20;;;;;;;;;;8334457;28;20036;-63
2022/12/01 13:56:29;;;;;;;16.52;10.35;;;;;;;;;;8332486;28;20020;-63
2022/12/01 14:00:31;;;;;;;14.38;9.57;;;;;;;;;;8300848;28;20037;-63
2022/12/01 14:04:31;;;;;;;14.63;9.52;;;;;;;;;;8335664;28;20025;-63
2022/12/01 14:08:33;;;;;;;17.00;9.93;;;;;;;;;;8335975;28;20050;-64
2022/12/01 14:12:36;;;;;;;15.90;10.07;;;;;;;;;;8336171;28;20204;-62
2022/12/01 14:16:48;;;;;;;16.50;10.13;;;;;;;;;;8340850;28;20033;-63
2022/12/01 14:20:49;;;;;;;17.45;11.10;;;;;;;;;;8341933;28;20338;-63
2022/12/01 14:24:51;;;;;;;19.38;11.45;;;;;;;;;;8340189;28;20107;-63
2022/12/01 14:28:54;;;;;;;20.40;11.45;;;;;;;;;;8340434;28;20519;-63
2022/12/01 14:33:13;;;;;;;17.23;11.02;;;;;;;;;;8340798;28;20902;-64
2022/12/01 14:37:17;;;;;;;16.80;10.55;;;;;;;;;;8339646;28;20024;-62
2022/12/01 14:41:17;;;;;;;;;;;;;;;;;;8340920;28;20775;-65
2022/12/01 14:45:39;;;;;;;19.30;12.00;;;;;;;;;;8339427;28;19909;-63
2022/12/01 14:49:42;;;;;;;17.10;11.48;;;;;;;;;;8338622;28;20275;-63
2022/12/01 14:53:44;;;;;;;23.63;11.63;;;;;;;;;;8340208;28;20040;-64
2022/12/01 14:57:49;;;;;;;22.35;12.35;;;;;;;;;;8341576;28;20028;-62
2022/12/01 15:01:50;;;;;;;19.50;11.73;;;;;;;;;;8340702;28;20028;-62
2022/12/01 15:05:51;;;;;;;18.13;11.05;;;;;;;;;;8342249;28;20037;-63
2022/12/01 15:09:57;;;;;;;22.30;11.70;;;;;;;;;;8341964;28;20024;-62
2022/12/01 15:13:58;;;;;;;18.55;11.05;;;;;;;;;;8341565;28;20021;-62
2022/12/01 15:18:00;;;;;;;21.30;11.77;;;;;;;;;;8339761;28;20037;-63
2022/12/01 15:22:18;;;;;;;23.92;11.60;;;;;;;;;;8340825;28;20094;-64
2022/12/01 15:26:19;;;;;;;18.92;11.93;;;;;;;;;;8343609;28;20427;-63
2022/12/01 15:30:19;;;;;;;19.88;11.43;;;;;;;;;;8342215;28;20032;-63
2022/12/01 15:34:22;;;;;;;17.98;10.80;;;;;;;;;;8342939;28;20105;-63
2022/12/01 15:38:29;;;;;;;18.45;11.30;;;;;;;;;;8334617;28;20052;-64
2022/12/01 15:42:32;;;;;;;22.85;11.27;;;;;;;;;;8336146;28;20482;-63
2022/12/01 15:46:35;;;;;;;17.95;11.60;;;;;;;;;;8338172;28;20037;-62
2022/12/01 15:50:38;;;;;;;20.35;12.02;;;;;;;;;;8339346;28;20481;-62
2022/12/01 15:54:39;;;;;;;20.10;11.57;;;;;;;;;;8336555;28;20078;-62
2022/12/01 15:58:41;;;;;;;22.20;12.67;;;;;;;;;;8335230;28;20493;-62
2022/12/01 16:02:41;;;;;;;21.23;12.95;;;;;;;;;;8336973;28;20800;-63
2022/12/01 16:06:41;;;;;;;20.38;12.40;;;;;;;;;;8337258;28;20382;-63
2022/12/01 16:10:41;;;;;;;20.90;11.98;;;;;;;;;;8339662;28;20043;-63
2022/12/01 16:14:47;;;;;;;24.05;13.93;;;;;;;;;;8338733;28;20027;-63
2022/12/01 16:18:55;;;;;;;24.90;14.05;;;;;;;;;;8337859;28;20115;-63
2022/12/01 16:22:57;;;;;;;21.88;12.68;;;;;;;;;;8336049;28;20720;-63
2022/12/01 16:27:05;;;;;;;24.90;13.75;;;;;;;;;;8339005;28;20033;-63
2022/12/01 16:31:06;;;;;;;25.63;13.43;;;;;;;;;;8337167;28;20163;-63
2022/12/01 16:35:26;;;;;;;20.50;12.13;;;;;;;;;;8337947;28;20062;-63
2022/12/01 16:39:26;;;;;;;22.15;13.15;;;;;;;;;;8338083;28;20056;-63
2022/12/01 16:43:27;;;;;;;24.10;13.52;;;;;;;;;;8338135;28;20028;-64
2022/12/01 16:47:29;;;;;;;25.08;14.95;;;;;;;;;;8338201;28;20037;-62
2022/12/01 16:51:30;;;;;;;24.63;14.43;;;;;;;;;;8337339;28;20155;-63
2022/12/01 16:55:40;;;;;;;25.13;13.88;;;;;;;;;;8336033;28;20608;-63
2022/12/01 16:59:40;;;;;;;23.83;14.18;;;;;;;;;;8333861;28;20126;-63
2022/12/01 17:03:40;;;;;;;22.40;14.30;;;;;;;;;;8335551;28;20041;-63
2022/12/01 17:07:40;;;;;;;21.75;13.27;;;;;;;;;;8332182;28;20355;-63
2022/12/01 17:11:40;;;;;;;22.80;13.18;;;;;;;;;;8332851;28;20563;-63
2022/12/01 17:15:42;;;;;;;25.40;13.70;;;;;;;;;;8332178;28;20056;-63
2022/12/01 17:19:42;;;;;;;22.75;14.00;;;;;;;;;;8332530;28;20632;-63
2022/12/01 17:23:42;;;;;;;24.02;13.50;;;;;;;;;;8331827;28;20025;-63
2022/12/01 17:27:42;;;;;;;25.40;14.95;;;;;;;;;;8334376;28;20470;-63
2022/12/01 17:31:43;;;;;;;24.23;14.85;;;;;;;;;;8333767;28;20072;-63
2022/12/01 17:35:43;;;;;;;26.20;15.40;;;;;;;;;;8334863;28;20051;-63
2022/12/01 17:39:43;;;;;;;24.77;14.00;;;;;;;;;;8331555;28;20496;-63
2022/12/01 17:43:43;;;;;;;25.38;13.65;;;;;;;;;;8333792;28;20545;-63
2022/12/01 17:47:43;;;;;;;26.50;15.50;;;;;;;;;;8337300;28;20394;-62
2022/12/01 17:51:44;;;;;;;23.27;14.23;;;;;;;;;;8335759;28;20155;-63
2022/12/01 17:55:44;;;;;;;23.67;12.93;;;;;;;;;;8336441;28;20029;-63
2022/12/01 17:59:44;;;;;;;24.02;14.35;;;;;;;;;;8336128;28;20473;-63
2022/12/01 18:03:44;;;;;;;24.25;13.75;;;;;;;;;;8334984;28;20033;-63
2022/12/01 18:07:45;;;;;;;23.10;13.65;;;;;;;;;;8334836;28;20036;-63
2022/12/01 18:11:45;;;;;;;23.50;14.10;;;;;;;;;;8338914;28;20032;-64
2022/12/01 18:15:45;;;;;;;22.50;13.20;;;;;;;;;;8339327;28;20635;-63
2022/12/01 18:19:45;;;;;;;19.67;12.52;;;;;;;;;;8338800;28;20025;-63
2022/12/01 18:23:56;;;;;;;20.58;12.55;;;;;;;;;;8336014;28;20329;-63
2022/12/01 18:27:57;;;;;;;19.65;11.65;;;;;;;;;;8336441;28;20036;-63
2022/12/01 18:31:58;;;;;;;20.50;12.50;;;;;;;;;;8336539;28;20037;-63
2022/12/01 18:35:59;;;;;;;20.73;12.73;;;;;;;;;;8335972;28;20833;-63
2022/12/01 18:39:59;;;;;;;17.42;10.90;;;;;;;;;;8338257;28;20020;-64
2022/12/01 18:43:59;;;;;;;16.85;10.93;;;;;;;;;;8338102;28;20159;-63
2022/12/01 18:47:59;;;;;;;18.40;11.27;;;;;;;;;;8336442;28;20136;-64
2022/12/01 18:52:02;;;;;;;18.48;11.85;;;;;;;;;;8336927;28;20507;-63
2022/12/01 18:56:03;;;;;;;17.75;11.45;;;;;;;;;;8338065;28;20834;-63
2022/12/01 19:00:04;;;;;;;17.83;11.18;;;;;;;;;;8334089;28;20791;-63
2022/12/01 19:04:05;;;;;;;19.00;10.77;;;;;;;;;;8335096;28;20124;-63
2022/12/01 19:08:05;;;;;;;16.48;10.80;;;;;;;;;;8337064;28;20489;-63
2022/12/01 19:12:06;;;;;;;15.38;10.63;;;;;;;;;;8335643;28;20020;-64
2022/12/01 19:16:15;;;;;;;18.35;11.13;;;;;;;;;;8335216;28;20056;-63
2022/12/01 19:20:15;;;;;;;17.95;11.00;;;;;;;;;;8334155;28;20053;-63
2022/12/01 19:24:15;;;;;;;17.17;10.77;;;;;;;;;;8333203;28;20017;-64
2022/12/01 19:28:15;;;;;;;17.15;10.88;;;;;;;;;;8333564;28;20093;-63
2022/12/01 19:32:16;;;;;;;18.02;10.30;;;;;;;;;;8333965;28;20037;-64
2022/12/01 19:36:17;;;;;;;19.87;10.93;;;;;;;;;;8335831;28;20482;-63
2022/12/01 19:40:18;;;;;;;17.15;10.43;;;;;;;;;;8334673;28;20259;-63
2022/12/01 19:44:18;;;;;;;17.40;11.25;;;;;;;;;;8333817;28;20024;-63
2022/12/01 19:48:18;;;;;;;17.77;11.33;;;;;;;;;;8334293;28;20048;-63
2022/12/01 19:52:18;;;;;;;17.83;11.23;;;;;;;;;;8334826;28;20925;-62
2022/12/01 19:56:19;;;;;;;15.75;9.93;;;;;;;;;;8336854;28;20295;-63
2022/12/01 20:00:22;;;;;;;14.18;9.13;;;;;;;;;;8335353;28;20025;-63
2022/12/01 20:04:23;;;;;;;16.95;10.57;;;;;;;;;;8332849;28;20386;-63
2022/12/01 20:08:23;;;;;;;16.13;10.43;;;;;;;;;;8333265;28;20082;-63
2022/12/01 20:12:23;;;;;;;16.05;10.15;;;;;;;;;;8334022;28;20033;-64
2022/12/01 20:16:24;;;;;;;15.02;9.55;;;;;;;;;;8332456;28;20045;-63
2022/12/01 20:20:25;;;;;;;16.95;10.52;;;;;;;;;;8334854;28;20029;-63
2022/12/01 20:24:25;;;;;;;17.02;10.98;;;;;;;;;;8335392;28;20730;-63
2022/12/01 20:28:25;;;;;;;18.17;10.48;;;;;;;;;;8333013;28;20028;-63
2022/12/01 20:32:25;;;;;;;19.08;11.63;;;;;;;;;;8332911;28;20083;-63
2022/12/01 20:36:27;;;;;;;16.55;10.73;;;;;;;;;;8330593;28;20196;-64
2022/12/01 20:40:27;;;;;;;16.27;10.15;;;;;;;;;;8332543;28;20025;-63
2022/12/01 20:44:28;;;;;;;16.40;9.43;;;;;;;;;;8333586;28;20500;-63
2022/12/01 20:48:28;;;;;;;15.63;10.32;;;;;;;;;;8332864;28;20525;-63
2022/12/01 20:52:29;;;;;;;16.90;10.48;;;;;;;;;;8333463;28;20036;-63
2022/12/01 20:56:31;;;;;;;16.30;9.90;;;;;;;;;;8332013;28;20020;-63
2022/12/01 21:00:31;;;;;;;16.95;9.55;;;;;;;;;;8334236;28;20702;-63
2022/12/01 21:04:31;;;;;;;18.13;10.85;;;;;;;;;;8335772;28;20175;-63
2022/12/01 21:08:32;;;;;;;17.00;10.05;;;;;;;;;;8335037;28;20032;-63
2022/12/01 21:16:52;;;;;;;17.73;10.75;;;;;;;;;;8333577;28;20371;-63
2022/12/01 21:20:55;;;;;;;15.90;10.80;;;;;;;;;;8336438;28;20021;-63
2022/12/01 21:25:00;;;;;;;17.50;10.70;;;;;;;;;;8335311;28;20514;-63
2022/12/01 21:29:15;;;;;;;19.05;11.02;;;;;;;;;;8340606;28;20733;-63
2022/12/01 21:33:20;;;;;;;17.40;10.32;;;;;;;;;;8336675;28;20765;-63
2022/12/01 21:37:23;;;;;;;19.77;11.15;;;;;;;;;;8339904;28;20024;-63
2022/12/01 21:41:24;;;;;;;19.98;10.93;;;;;;;;;;8338976;28;20148;-64
2022/12/01 21:45:30;;;;;;;18.83;10.93;;;;;;;;;;8335307;28;20039;-63
2022/12/01 21:49:36;;;;;;;20.23;10.85;;;;;;;;;;8339199;28;20037;-63
2022/12/01 21:53:37;;;;;;;18.20;11.15;;;;;;;;;;8339576;28;20122;-63
2022/12/01 21:57:43;;;;;;;17.25;10.77;;;;;;;;;;8339052;28;20029;-63
2022/12/01 22:01:44;;;;;;;21.38;12.02;;;;;;;;;;8338048;28;20033;-63
2022/12/01 22:05:46;;;;;;;20.17;11.82;;;;;;;;;;8335404;28;20036;-63
2022/12/01 22:09:46;;;;;;;24.45;11.90;;;;;;;;;;8336523;28;20055;-63
2022/12/01 22:13:59;;;;;;;22.50;12.30;;;;;;;;;;8336954;28;20509;-63
2022/12/01 22:17:59;;;;;;;21.17;12.57;;;;;;;;;;8348264;28;20120;-63
2022/12/01 22:22:14;;;;;;;17.83;10.73;;;;;;;;;;8340199;28;20024;-64
2022/12/01 22:26:18;;;;;;;19.88;11.25;;;;;;;;;;8340440;28;20481;-63
2022/12/01 22:30:19;;;;;;;21.60;12.65;;;;;;;;;;8337568;28;20138;-63
2022/12/01 22:34:19;;;;;;;23.40;11.93;;;;;;;;;;8341779;28;20093;-63
2022/12/01 22:38:36;;;;;;;17.63;11.55;;;;;;;;;;8338099;28;20044;-63
2022/12/01 22:42:36;;;;;;;21.35;11.98;;;;;;;;;;8339221;28;20024;-63
2022/12/01 22:46:38;;;;;;;22.60;12.80;;;;;;;;;;8348688;28;20045;-63
2022/12/01 22:50:38;;;;;;;22.73;12.75;;;;;;;;;;8336398;28;20538;-63
2022/12/01 22:54:43;;;;;;;22.00;12.20;;;;;;;;;;8340441;28;20062;-63
2022/12/01 22:58:43;;;;;;;21.67;13.68;;;;;;;;;;8341420;28;20028;-63
2022/12/01 23:02:46;;;;;;;20.77;11.90;;;;;;;;;;8337253;28;20127;-63
2022/12/01 23:06:50;;;;;;;20.30;11.93;;;;;;;;;;8338819;28;20033;-64
2022/12/01 23:10:51;;;;;;;20.40;11.82;;;;;;;;;;8346951;28;20119;-63
2022/12/01 23:14:52;;;;;;;22.65;12.98;;;;;;;;;;8338205;28;20138;-63
2022/12/01 23:18:53;;;;;;;23.50;12.40;;;;;;;;;;8339091;28;20042;-64
2022/12/01 23:22:57;;;;;;;21.85;12.52;;;;;;;;;;8337618;28;20041;-64
2022/12/01 23:26:58;;;;;;;21.63;11.52;;;;;;;;;;8337476;28;20032;-63
2022/12/01 23:30:58;;;;;;;22.23;12.32;;;;;;;;;;8339747;28;20036;-63
2022/12/01 23:34:58;;;;;;;22.23;12.80;;;;;;;;;;8336242;28;20029;-64
2022/12/01 23:39:00;;;;;;;22.35;12.77;;;;;;;;;;8338940;28;20255;-63
2022/12/01 23:43:08;;;;;;;22.65;12.52;;;;;;;;;;8339453;28;20211;-63
2022/12/01 23:47:16;;;;;;;21.83;11.85;;;;;;;;;;8337427;28;20675;-63
2022/12/01 23:51:23;;;;;;;19.42;11.27;;;;;;;;;;8337253;28;20032;-62